Creighton, MO (64739)

7:13 AM CST on February 08, 2016 (GMT -0600)
Creighton | | Change Station
CLOSE
Current Station
Personal Weather Station
Location: Creighton, MO
Elevation: 804 ft
Nearby Weather Stations
Active Advisory: Wind Advisory

Elev 804 ft 38.49 °N, 94.08 °W | Updated 11 minutes ago

Overcast
Overcast
34.2 °F
Feels Like 31 °F
N
3.7
Wind Variable Wind from NNW

Today
High -- | Low -- °F
--% Chance of Precip.
Yesterday
High -- | Low -- °F
Precip. -- in
Pressure 29.98 in
Visibility 10.0 miles
Clouds Mostly Cloudy 3800 ft
Mostly Cloudy 4800 ft
Overcast 6000 ft
Windchill 31 °F
Dew Point 22 °F
Humidity 60%
Rainfall 0.00 in
Snow Depth Not available.
7:15 AM 5:46 PM
Waning Crescent, 0% visible
METAR KRCM 081255Z AUTO 32015G28KT 284V344 10SM BKN038 BKN048 OVC060 00/M06 A2998 RMK AO2
Pressure 29.98 in
Visibility 10.0 miles
Clouds Mostly Cloudy 3800 ft
Mostly Cloudy 4800 ft
Overcast 6000 ft
Windchill 31 °F
Dew Point 22 °F
Humidity 60%
Rainfall 0.00 in
Snow Depth Not available.
7:15 AM 5:46 PM
Waning Crescent, 0% visible
METAR KRCM 081255Z AUTO 32015G28KT 284V344 10SM BKN038 BKN048 OVC060 00/M06 A2998 RMK AO2

10-Day Weather Forecast

Almanac

Astronomy

Feb. 08, 2016 Rise Set
Actual Time
Civil Twilight
Nautical Twilight
Astronomical Twilight
Moon
Length of Visible Light
Length of Day
Tomorrow will be .
, % of the Moon is Illuminated

Today's Extremes

State Highs State Lows

Community

WunderPhotos

Upload Photos

1,891,434 photos uploaded!

WunderBlog® & News

Nearby

Air Quality

  Air Quality AQ Index Pollutant
Not available.

Snow Depth

Station Depth Elevation

Earthquake Activity

City Distance Mag. Time & Date
Minimum magnitude displayed is 2.5.

Coastal Water Temperatures

Place Temperature

Stations

Nearby Weather Stations

Station Location Temp. Windchill Dew Point Humidity Wind Precip. Elev Updated Type
                   

Watches & Warnings

Wind Advisory
Issued: 4:50 AM CST Feb. 8, 2016 – National Weather Service

... Wind Advisory remains in effect from 8 am this morning to 6 PM
CST this evening...

* timing... through this evening.

* Winds... sustained winds around 30 to 35 mph with gusts in excess
of 45 mph are expected.

* Impacts... strong Crosswinds on highways could make travel
difficult... particularly for high profile vehicles. In
addition... light snow this morning combined with strong winds may
periodically reduce visibilities.

Precautionary/preparedness actions...

A Wind Advisory means that winds of 35 mph are expected. Winds
this strong can make driving difficult... especially for high
profile vehicles. Use extra caution.